sensor_id;sensor_type;location;lat;lon;timestamp;temperature;humidity
35970;DHT22;22448;51.298;6.430;2023-03-31T00:00:19;9.80;99.90
35970;DHT22;22448;51.298;6.430;2023-03-31T00:02:47;9.80;99.90
35970;DHT22;22448;51.298;6.430;2023-03-31T00:05:14;9.90;99.90
35970;DHT22;22448;51.298;6.430;2023-03-31T00:07:44;9.90;99.90
35970;DHT22;22448;51.298;6.430;2023-03-31T00:10:11;10.00;99.90
35970;DHT22;22448;51.298;6.430;2023-03-31T00:12:44;10.00;99.90
35970;DHT22;22448;51.298;6.430;2023-03-31T00:15:12;10.00;99.90
35970;DHT22;22448;51.298;6.430;2023-03-31T00:17:38;10.10;99.90
35970;DHT22;22448;51.298;6.430;2023-03-31T00:20:06;10.10;99.90
35970;DHT22;22448;51.298;6.430;2023-03-31T00:22:39;10.20;99.90
35970;DHT22;22448;51.298;6.430;2023-03-31T00:25:09;10.20;99.90
35970;DHT22;22448;51.298;6.430;2023-03-31T00:27:37;10.20;99.90
35970;DHT22;22448;51.298;6.430;2023-03-31T00:30:04;10.20;99.90
35970;DHT22;22448;51.298;6.430;2023-03-31T00:32:32;10.20;99.90
35970;DHT22;22448;51.298;6.430;2023-03-31T00:34:59;10.20;99.90
35970;DHT22;22448;51.298;6.430;2023-03-31T00:37:28;10.10;99.90
35970;DHT22;22448;51.298;6.430;2023-03-31T00:39:56;10.10;99.90
35970;DHT22;22448;51.298;6.430;2023-03-31T00:42:23;10.10;99.90
35970;DHT22;22448;51.298;6.430;2023-03-31T00:48:06;10.10;99.90
35970;DHT22;22448;51.298;6.430;2023-03-31T00:50:46;10.10;99.90
35970;DHT22;22448;51.298;6.430;2023-03-31T00:53:16;10.00;99.90
35970;DHT22;22448;51.298;6.430;2023-03-31T00:55:50;10.00;99.90
35970;DHT22;22448;51.298;6.430;2023-03-31T00:58:18;10.00;99.90
35970;DHT22;22448;51.298;6.430;2023-03-31T01:00:48;10.00;99.90
35970;DHT22;22448;51.298;6.430;2023-03-31T01:03:17;10.00;99.90
35970;DHT22;22448;51.298;6.430;2023-03-31T01:05:49;10.00;99.90
35970;DHT22;22448;51.298;6.430;2023-03-31T01:08:19;9.90;99.90
35970;DHT22;22448;51.298;6.430;2023-03-31T01:10:53;9.90;99.90
35970;DHT22;22448;51.298;6.430;2023-03-31T01:13:20;9.90;99.90
35970;DHT22;22448;51.298;6.430;2023-03-31T01:15:48;9.90;99.90
35970;DHT22;22448;51.298;6.430;2023-03-31T01:18:16;9.80;99.90
35970;DHT22;22448;51.298;6.430;2023-03-31T01:23:44;9.80;99.90
35970;DHT22;22448;51.298;6.430;2023-03-31T01:26:41;9.70;99.90
35970;DHT22;22448;51.298;6.430;2023-03-31T01:34:38;9.60;99.90
35970;DHT22;22448;51.298;6.430;2023-03-31T01:43:14;9.50;99.90
35970;DHT22;22448;51.298;6.430;2023-03-31T01:46:15;9.50;99.90
35970;DHT22;22448;51.298;6.430;2023-03-31T01:54:40;9.50;99.90
35970;DHT22;22448;51.298;6.430;2023-03-31T01:57:14;9.60;99.90
35970;DHT22;22448;51.298;6.430;2023-03-31T01:59:51;9.60;99.90
35970;DHT22;22448;51.298;6.430;2023-03-31T02:02:35;9.60;99.90
35970;DHT22;22448;51.298;6.430;2023-03-31T02:05:17;9.60;99.90
35970;DHT22;22448;51.298;6.430;2023-03-31T02:07:50;9.70;99.90
35970;DHT22;22448;51.298;6.430;2023-03-31T02:10:19;9.80;99.90
35970;DHT22;22448;51.298;6.430;2023-03-31T02:12:49;9.80;99.90
35970;DHT22;22448;51.298;6.430;2023-03-31T02:15:24;9.90;99.90
35970;DHT22;22448;51.298;6.430;2023-03-31T02:17:55;9.90;99.90
35970;DHT22;22448;51.298;6.430;2023-03-31T02:20:26;10.00;99.90
35970;DHT22;22448;51.298;6.430;2023-03-31T02:22:55;10.00;99.90
35970;DHT22;22448;51.298;6.430;2023-03-31T02:25:31;10.00;99.90
35970;DHT22;22448;51.298;6.430;2023-03-31T02:28:06;10.10;99.90
35970;DHT22;22448;51.298;6.430;2023-03-31T02:33:27;10.10;99.90
35970;DHT22;22448;51.298;6.430;2023-03-31T02:35:54;10.10;99.90
35970;DHT22;22448;51.298;6.430;2023-03-31T02:38:21;10.20;99.90
35970;DHT22;22448;51.298;6.430;2023-03-31T02:40:48;10.10;99.90
35970;DHT22;22448;51.298;6.430;2023-03-31T02:43:15;10.20;99.90
35970;DHT22;22448;51.298;6.430;2023-03-31T02:45:44;10.20;99.90
35970;DHT22;22448;51.298;6.430;2023-03-31T02:48:31;10.20;99.90
35970;DHT22;22448;51.298;6.430;2023-03-31T02:54:19;10.20;99.90
35970;DHT22;22448;51.298;6.430;2023-03-31T02:57:18;10.20;99.90
35970;DHT22;22448;51.298;6.430;2023-03-31T03:02:33;10.20;99.90
35970;DHT22;22448;51.298;6.430;2023-03-31T03:05:21;10.20;99.90
35970;DHT22;22448;51.298;6.430;2023-03-31T03:11:04;10.10;99.90
35970;DHT22;22448;51.298;6.430;2023-03-31T03:16:42;10.10;99.90
35970;DHT22;22448;51.298;6.430;2023-03-31T03:19:18;10.10;99.90
35970;DHT22;22448;51.298;6.430;2023-03-31T03:21:46;10.10;99.90
35970;DHT22;22448;51.298;6.430;2023-03-31T03:24:14;10.00;99.90
35970;DHT22;22448;51.298;6.430;2023-03-31T03:26:46;10.10;99.90
35970;DHT22;22448;51.298;6.430;2023-03-31T03:29:13;10.00;99.90
35970;DHT22;22448;51.298;6.430;2023-03-31T03:31:41;10.00;99.90
35970;DHT22;22448;51.298;6.430;2023-03-31T03:34:09;10.00;99.90
35970;DHT22;22448;51.298;6.430;2023-03-31T03:36:37;10.00;99.90
35970;DHT22;22448;51.298;6.430;2023-03-31T03:39:06;10.00;99.90
35970;DHT22;22448;51.298;6.430;2023-03-31T03:41:34;10.00;99.90
35970;DHT22;22448;51.298;6.430;2023-03-31T03:44:01;10.00;99.90
35970;DHT22;22448;51.298;6.430;2023-03-31T03:46:28;10.00;99.90
35970;DHT22;22448;51.298;6.430;2023-03-31T03:48:55;10.00;99.90
35970;DHT22;22448;51.298;6.430;2023-03-31T03:51:22;10.00;99.90
35970;DHT22;22448;51.298;6.430;2023-03-31T03:53:49;10.00;99.90
35970;DHT22;22448;51.298;6.430;2023-03-31T03:56:16;10.00;99.90
35970;DHT22;22448;51.298;6.430;2023-03-31T03:58:43;10.00;99.90
35970;DHT22;22448;51.298;6.430;2023-03-31T04:01:10;10.00;99.90
35970;DHT22;22448;51.298;6.430;2023-03-31T04:03:37;10.00;99.90
35970;DHT22;22448;51.298;6.430;2023-03-31T04:06:04;10.00;99.90
35970;DHT22;22448;51.298;6.430;2023-03-31T04:08:31;10.00;99.90
35970;DHT22;22448;51.298;6.430;2023-03-31T04:10:58;10.00;99.90
35970;DHT22;22448;51.298;6.430;2023-03-31T04:13:25;10.00;99.90
35970;DHT22;22448;51.298;6.430;2023-03-31T04:15:53;10.00;99.90
35970;DHT22;22448;51.298;6.430;2023-03-31T04:18:20;10.00;99.90
35970;DHT22;22448;51.298;6.430;2023-03-31T04:20:53;10.00;99.90
35970;DHT22;22448;51.298;6.430;2023-03-31T04:23:34;10.00;99.90
35970;DHT22;22448;51.298;6.430;2023-03-31T04:26:04;10.00;99.90
35970;DHT22;22448;51.298;6.430;2023-03-31T04:28:35;10.00;99.90
35970;DHT22;22448;51.298;6.430;2023-03-31T04:31:04;10.00;99.90
35970;DHT22;22448;51.298;6.430;2023-03-31T04:33:32;10.00;99.90
35970;DHT22;22448;51.298;6.430;2023-03-31T04:36:05;10.00;99.90
35970;DHT22;22448;51.298;6.430;2023-03-31T04:38:48;10.00;99.90
35970;DHT22;22448;51.298;6.430;2023-03-31T04:41:28;10.00;99.90
35970;DHT22;22448;51.298;6.430;2023-03-31T04:43:55;10.00;99.90
35970;DHT22;22448;51.298;6.430;2023-03-31T04:46:22;10.00;99.90
35970;DHT22;22448;51.298;6.430;2023-03-31T04:48:49;10.00;99.90
35970;DHT22;22448;51.298;6.430;2023-03-31T04:51:16;9.90;99.90
35970;DHT22;22448;51.298;6.430;2023-03-31T04:53:43;9.90;99.90
35970;DHT22;22448;51.298;6.430;2023-03-31T04:56:10;9.90;99.90
35970;DHT22;22448;51.298;6.430;2023-03-31T04:58:38;9.90;99.90
35970;DHT22;22448;51.298;6.430;2023-03-31T05:01:05;9.80;99.90
35970;DHT22;22448;51.298;6.430;2023-03-31T05:03:32;9.80;99.90
35970;DHT22;22448;51.298;6.430;2023-03-31T05:06:00;9.80;99.90
35970;DHT22;22448;51.298;6.430;2023-03-31T05:08:27;9.80;99.90
35970;DHT22;22448;51.298;6.430;2023-03-31T05:10:54;9.80;99.90
35970;DHT22;22448;51.298;6.430;2023-03-31T05:13:21;9.80;99.90
35970;DHT22;22448;51.298;6.430;2023-03-31T05:15:48;9.80;99.90
35970;DHT22;22448;51.298;6.430;2023-03-31T05:18:17;9.80;99.90
35970;DHT22;22448;51.298;6.430;2023-03-31T05:20:44;9.90;99.90
35970;DHT22;22448;51.298;6.430;2023-03-31T05:23:12;9.90;99.90
35970;DHT22;22448;51.298;6.430;2023-03-31T05:25:40;9.90;99.90
35970;DHT22;22448;51.298;6.430;2023-03-31T05:28:08;9.90;99.90
35970;DHT22;22448;51.298;6.430;2023-03-31T05:30:37;9.90;99.90
35970;DHT22;22448;51.298;6.430;2023-03-31T05:33:04;10.00;99.90
35970;DHT22;22448;51.298;6.430;2023-03-31T05:35:31;10.00;99.90
35970;DHT22;22448;51.298;6.430;2023-03-31T05:37:58;10.00;99.90
35970;DHT22;22448;51.298;6.430;2023-03-31T05:40:25;10.00;99.90
35970;DHT22;22448;51.298;6.430;2023-03-31T05:42:52;10.00;99.90
35970;DHT22;22448;51.298;6.430;2023-03-31T05:45:19;10.00;99.90
35970;DHT22;22448;51.298;6.430;2023-03-31T05:47:46;10.00;99.90
35970;DHT22;22448;51.298;6.430;2023-03-31T05:50:13;10.00;99.90
35970;DHT22;22448;51.298;6.430;2023-03-31T05:52:40;10.00;99.90
35970;DHT22;22448;51.298;6.430;2023-03-31T05:55:07;10.00;99.90
35970;DHT22;22448;51.298;6.430;2023-03-31T05:57:35;9.90;99.90
35970;DHT22;22448;51.298;6.430;2023-03-31T06:00:03;9.90;99.90
35970;DHT22;22448;51.298;6.430;2023-03-31T06:02:32;9.90;99.90
35970;DHT22;22448;51.298;6.430;2023-03-31T06:04:59;9.90;99.90
35970;DHT22;22448;51.298;6.430;2023-03-31T06:07:26;9.90;99.90
35970;DHT22;22448;51.298;6.430;2023-03-31T06:09:53;9.90;99.90
35970;DHT22;22448;51.298;6.430;2023-03-31T06:12:20;9.90;99.90
35970;DHT22;22448;51.298;6.430;2023-03-31T06:14:47;9.90;99.90
35970;DHT22;22448;51.298;6.430;2023-03-31T06:17:14;9.90;99.90
35970;DHT22;22448;51.298;6.430;2023-03-31T06:19:42;9.90;99.90
35970;DHT22;22448;51.298;6.430;2023-03-31T06:22:09;10.00;99.90
35970;DHT22;22448;51.298;6.430;2023-03-31T06:24:35;10.00;99.90
35970;DHT22;22448;51.298;6.430;2023-03-31T06:27:02;10.00;99.90
35970;DHT22;22448;51.298;6.430;2023-03-31T06:29:30;10.00;99.90
35970;DHT22;22448;51.298;6.430;2023-03-31T06:31:56;10.00;99.90
35970;DHT22;22448;51.298;6.430;2023-03-31T06:34:24;10.00;99.90
35970;DHT22;22448;51.298;6.430;2023-03-31T06:36:51;10.00;99.90
35970;DHT22;22448;51.298;6.430;2023-03-31T06:39:19;10.00;99.90
35970;DHT22;22448;51.298;6.430;2023-03-31T06:41:46;10.00;99.90
35970;DHT22;22448;51.298;6.430;2023-03-31T06:44:21;10.10;99.90
35970;DHT22;22448;51.298;6.430;2023-03-31T06:46:48;10.10;99.90
35970;DHT22;22448;51.298;6.430;2023-03-31T06:49:16;10.30;99.90
35970;DHT22;22448;51.298;6.430;2023-03-31T06:51:43;10.30;99.90
35970;DHT22;22448;51.298;6.430;2023-03-31T06:54:10;10.20;99.90
35970;DHT22;22448;51.298;6.430;2023-03-31T06:56:36;10.20;99.90
35970;DHT22;22448;51.298;6.430;2023-03-31T06:59:03;10.10;99.90
35970;DHT22;22448;51.298;6.430;2023-03-31T07:01:30;10.10;99.90
35970;DHT22;22448;51.298;6.430;2023-03-31T07:03:57;10.00;99.90
35970;DHT22;22448;51.298;6.430;2023-03-31T07:06:25;10.00;99.90
35970;DHT22;22448;51.298;6.430;2023-03-31T07:08:52;10.00;99.90
35970;DHT22;22448;51.298;6.430;2023-03-31T07:11:19;10.00;99.90
35970;DHT22;22448;51.298;6.430;2023-03-31T07:13:46;10.00;99.90
35970;DHT22;22448;51.298;6.430;2023-03-31T07:16:13;10.00;99.90
35970;DHT22;22448;51.298;6.430;2023-03-31T07:18:40;10.00;99.90
35970;DHT22;22448;51.298;6.430;2023-03-31T07:21:08;10.00;99.90
35970;DHT22;22448;51.298;6.430;2023-03-31T07:23:36;10.00;99.90
35970;DHT22;22448;51.298;6.430;2023-03-31T07:26:04;10.00;99.90
35970;DHT22;22448;51.298;6.430;2023-03-31T07:28:32;10.10;99.90
35970;DHT22;22448;51.298;6.430;2023-03-31T07:30:59;10.10;99.90
35970;DHT22;22448;51.298;6.430;2023-03-31T07:33:26;10.10;99.90
35970;DHT22;22448;51.298;6.430;2023-03-31T07:35:53;10.00;99.90
35970;DHT22;22448;51.298;6.430;2023-03-31T07:38:37;10.10;99.90
35970;DHT22;22448;51.298;6.430;2023-03-31T07:41:04;10.10;99.90
35970;DHT22;22448;51.298;6.430;2023-03-31T07:43:35;10.10;99.90
35970;DHT22;22448;51.298;6.430;2023-03-31T07:46:03;10.10;99.90
35970;DHT22;22448;51.298;6.430;2023-03-31T07:48:31;10.20;99.90
35970;DHT22;22448;51.298;6.430;2023-03-31T07:50:58;10.20;99.90
35970;DHT22;22448;51.298;6.430;2023-03-31T07:53:30;10.20;99.90
35970;DHT22;22448;51.298;6.430;2023-03-31T07:55:58;10.30;99.90
35970;DHT22;22448;51.298;6.430;2023-03-31T07:58:25;10.30;99.90
35970;DHT22;22448;51.298;6.430;2023-03-31T08:00:52;10.40;99.90
35970;DHT22;22448;51.298;6.430;2023-03-31T08:03:19;10.50;99.90
35970;DHT22;22448;51.298;6.430;2023-03-31T08:05:46;10.50;99.90
35970;DHT22;22448;51.298;6.430;2023-03-31T08:08:17;10.60;99.90
35970;DHT22;22448;51.298;6.430;2023-03-31T08:10:44;10.80;99.90
35970;DHT22;22448;51.298;6.430;2023-03-31T08:13:11;11.00;99.90
35970;DHT22;22448;51.298;6.430;2023-03-31T08:15:38;11.20;99.90
35970;DHT22;22448;51.298;6.430;2023-03-31T08:18:05;11.30;99.90
35970;DHT22;22448;51.298;6.430;2023-03-31T08:20:32;11.40;99.90
35970;DHT22;22448;51.298;6.430;2023-03-31T08:22:59;11.50;99.90
35970;DHT22;22448;51.298;6.430;2023-03-31T08:25:26;11.70;99.90
35970;DHT22;22448;51.298;6.430;2023-03-31T08:27:53;11.80;99.90
35970;DHT22;22448;51.298;6.430;2023-03-31T08:30:20;11.90;99.90
35970;DHT22;22448;51.298;6.430;2023-03-31T08:32:46;12.10;99.90
35970;DHT22;22448;51.298;6.430;2023-03-31T08:35:13;12.30;99.90
35970;DHT22;22448;51.298;6.430;2023-03-31T08:37:40;12.40;99.90
35970;DHT22;22448;51.298;6.430;2023-03-31T08:40:15;12.40;99.90
35970;DHT22;22448;51.298;6.430;2023-03-31T08:42:49;12.30;99.90
35970;DHT22;22448;51.298;6.430;2023-03-31T08:45:35;12.30;99.90
35970;DHT22;22448;51.298;6.430;2023-03-31T08:48:14;12.20;99.90
35970;DHT22;22448;51.298;6.430;2023-03-31T08:50:49;12.10;99.90
35970;DHT22;22448;51.298;6.430;2023-03-31T08:53:46;12.00;99.90
35970;DHT22;22448;51.298;6.430;2023-03-31T08:56:19;11.90;99.90
35970;DHT22;22448;51.298;6.430;2023-03-31T08:58:50;11.90;99.90
35970;DHT22;22448;51.298;6.430;2023-03-31T09:01:48;11.90;99.90
35970;DHT22;22448;51.298;6.430;2023-03-31T09:04:29;12.00;99.90
35970;DHT22;22448;51.298;6.430;2023-03-31T09:07:23;12.00;99.90
35970;DHT22;22448;51.298;6.430;2023-03-31T09:12:55;12.20;99.90
35970;DHT22;22448;51.298;6.430;2023-03-31T09:15:28;12.20;99.90
35970;DHT22;22448;51.298;6.430;2023-03-31T09:18:05;12.40;99.90
35970;DHT22;22448;51.298;6.430;2023-03-31T09:20:39;12.50;99.90
35970;DHT22;22448;51.298;6.430;2023-03-31T09:23:21;12.60;99.90
35970;DHT22;22448;51.298;6.430;2023-03-31T09:25:50;12.60;99.90
35970;DHT22;22448;51.298;6.430;2023-03-31T09:28:22;12.80;99.90
35970;DHT22;22448;51.298;6.430;2023-03-31T09:30:51;13.00;99.90
35970;DHT22;22448;51.298;6.430;2023-03-31T09:33:26;13.20;99.90
35970;DHT22;22448;51.298;6.430;2023-03-31T09:36:00;13.40;99.90
35970;DHT22;22448;51.298;6.430;2023-03-31T09:38:29;13.40;99.90
35970;DHT22;22448;51.298;6.430;2023-03-31T09:40:57;13.30;99.90
35970;DHT22;22448;51.298;6.430;2023-03-31T09:43:28;13.10;99.90
35970;DHT22;22448;51.298;6.430;2023-03-31T09:45:56;13.00;99.90
35970;DHT22;22448;51.298;6.430;2023-03-31T09:48:36;12.80;99.90
35970;DHT22;22448;51.298;6.430;2023-03-31T09:51:07;12.50;99.90
35970;DHT22;22448;51.298;6.430;2023-03-31T09:53:45;12.50;99.90
35970;DHT22;22448;51.298;6.430;2023-03-31T09:56:13;12.40;99.90
35970;DHT22;22448;51.298;6.430;2023-03-31T09:59:00;12.50;99.90
35970;DHT22;22448;51.298;6.430;2023-03-31T10:01:28;12.60;99.90
35970;DHT22;22448;51.298;6.430;2023-03-31T10:03:55;12.80;99.90
35970;DHT22;22448;51.298;6.430;2023-03-31T10:06:24;12.80;99.90
35970;DHT22;22448;51.298;6.430;2023-03-31T10:08:57;12.90;99.90
35970;DHT22;22448;51.298;6.430;2023-03-31T10:11:25;13.10;99.90
35970;DHT22;22448;51.298;6.430;2023-03-31T10:14:10;13.30;99.90
35970;DHT22;22448;51.298;6.430;2023-03-31T10:16:57;13.50;99.90
35970;DHT22;22448;51.298;6.430;2023-03-31T10:19:26;13.70;99.90
35970;DHT22;22448;51.298;6.430;2023-03-31T10:21:58;14.00;99.90
35970;DHT22;22448;51.298;6.430;2023-03-31T10:24:34;14.10;99.90
35970;DHT22;22448;51.298;6.430;2023-03-31T10:27:05;14.10;99.90
35970;DHT22;22448;51.298;6.430;2023-03-31T10:29:33;13.90;99.90
35970;DHT22;22448;51.298;6.430;2023-03-31T10:32:09;13.70;99.90
35970;DHT22;22448;51.298;6.430;2023-03-31T10:34:41;13.50;99.90
35970;DHT22;22448;51.298;6.430;2023-03-31T10:37:15;13.50;99.90
35970;DHT22;22448;51.298;6.430;2023-03-31T10:39:43;13.10;99.90
35970;DHT22;22448;51.298;6.430;2023-03-31T10:42:21;12.70;99.90
35970;DHT22;22448;51.298;6.430;2023-03-31T10:44:48;12.50;99.90
35970;DHT22;22448;51.298;6.430;2023-03-31T10:47:20;12.50;99.90
35970;DHT22;22448;51.298;6.430;2023-03-31T10:49:50;12.70;99.90
35970;DHT22;22448;51.298;6.430;2023-03-31T10:52:25;12.80;99.90
35970;DHT22;22448;51.298;6.430;2023-03-31T10:54:57;12.90;99.90
35970;DHT22;22448;51.298;6.430;2023-03-31T10:57:43;12.90;99.90
35970;DHT22;22448;51.298;6.430;2023-03-31T11:00:31;12.80;99.90
35970;DHT22;22448;51.298;6.430;2023-03-31T11:06:50;12.80;99.90
35970;DHT22;22448;51.298;6.430;2023-03-31T11:14:53;13.20;99.90
35970;DHT22;22448;51.298;6.430;2023-03-31T11:17:53;13.40;99.90
35970;DHT22;22448;51.298;6.430;2023-03-31T11:20:37;13.60;99.90
35970;DHT22;22448;51.298;6.430;2023-03-31T11:23:35;13.70;99.90
35970;DHT22;22448;51.298;6.430;2023-03-31T11:26:10;13.90;99.90
35970;DHT22;22448;51.298;6.430;2023-03-31T11:38:24;15.20;99.90
35970;DHT22;22448;51.298;6.430;2023-03-31T11:41:07;15.10;99.90
35970;DHT22;22448;51.298;6.430;2023-03-31T11:49:07;15.10;99.90
35970;DHT22;22448;51.298;6.430;2023-03-31T11:51:56;15.00;99.90
35970;DHT22;22448;51.298;6.430;2023-03-31T11:59:56;14.30;99.90
35970;DHT22;22448;51.298;6.430;2023-03-31T12:02:43;14.10;99.90
35970;DHT22;22448;51.298;6.430;2023-03-31T12:05:12;13.80;99.90
35970;DHT22;22448;51.298;6.430;2023-03-31T12:10:34;13.70;99.90
35970;DHT22;22448;51.298;6.430;2023-03-31T12:13:23;14.00;99.90
35970;DHT22;22448;51.298;6.430;2023-03-31T12:19:23;14.50;99.90
35970;DHT22;22448;51.298;6.430;2023-03-31T12:22:18;14.70;99.90
35970;DHT22;22448;51.298;6.430;2023-03-31T12:24:47;14.90;99.90
35970;DHT22;22448;51.298;6.430;2023-03-31T12:30:03;15.20;99.90
35970;DHT22;22448;51.298;6.430;2023-03-31T12:32:37;15.40;99.90
35970;DHT22;22448;51.298;6.430;2023-03-31T12:46:23;15.80;99.90
35970;DHT22;22448;51.298;6.430;2023-03-31T12:49:20;15.80;99.90
35970;DHT22;22448;51.298;6.430;2023-03-31T12:52:03;15.80;99.90
35970;DHT22;22448;51.298;6.430;2023-03-31T12:57:36;15.70;99.90
35970;DHT22;22448;51.298;6.430;2023-03-31T13:00:23;16.00;99.90
35970;DHT22;22448;51.298;6.430;2023-03-31T13:05:56;15.90;99.90
35970;DHT22;22448;51.298;6.430;2023-03-31T13:08:49;15.70;99.90
35970;DHT22;22448;51.298;6.430;2023-03-31T13:11:21;15.60;99.90
35970;DHT22;22448;51.298;6.430;2023-03-31T13:14:12;15.50;99.90
35970;DHT22;22448;51.298;6.430;2023-03-31T13:16:41;15.70;99.90
35970;DHT22;22448;51.298;6.430;2023-03-31T13:19:41;15.70;99.90
35970;DHT22;22448;51.298;6.430;2023-03-31T13:27:57;15.60;99.90
35970;DHT22;22448;51.298;6.430;2023-03-31T13:33:12;15.50;99.90
35970;DHT22;22448;51.298;6.430;2023-03-31T13:35:47;15.30;99.90
35970;DHT22;22448;51.298;6.430;2023-03-31T13:38:31;15.30;99.90
35970;DHT22;22448;51.298;6.430;2023-03-31T14:04:07;15.20;99.90
35970;DHT22;22448;51.298;6.430;2023-03-31T14:09:24;14.90;99.90
35970;DHT22;22448;51.298;6.430;2023-03-31T14:11:52;14.70;99.90
35970;DHT22;22448;51.298;6.430;2023-03-31T14:14:20;14.50;99.90
35970;DHT22;22448;51.298;6.430;2023-03-31T14:17:00;14.30;99.90
35970;DHT22;22448;51.298;6.430;2023-03-31T14:28:22;13.40;99.90
35970;DHT22;22448;51.298;6.430;2023-03-31T14:35:36;12.50;99.90
35970;DHT22;22448;51.298;6.430;2023-03-31T14:38:10;12.50;99.90
35970;DHT22;22448;51.298;6.430;2023-03-31T14:40:46;12.70;99.90
35970;DHT22;22448;51.298;6.430;2023-03-31T14:43:30;13.00;99.90
35970;DHT22;22448;51.298;6.430;2023-03-31T14:46:01;13.20;99.90
35970;DHT22;22448;51.298;6.430;2023-03-31T14:48:32;13.30;99.90
35970;DHT22;22448;51.298;6.430;2023-03-31T14:51:02;13.30;99.90
35970;DHT22;22448;51.298;6.430;2023-03-31T14:53:29;13.20;99.90
35970;DHT22;22448;51.298;6.430;2023-03-31T14:56:12;13.10;99.90
35970;DHT22;22448;51.298;6.430;2023-03-31T14:58:43;13.00;99.90
35970;DHT22;22448;51.298;6.430;2023-03-31T15:01:16;12.80;99.90
35970;DHT22;22448;51.298;6.430;2023-03-31T15:03:44;12.70;99.90
35970;DHT22;22448;51.298;6.430;2023-03-31T15:06:13;12.70;99.90
35970;DHT22;22448;51.298;6.430;2023-03-31T15:08:41;12.80;99.90
35970;DHT22;22448;51.298;6.430;2023-03-31T15:11:13;12.80;99.90
35970;DHT22;22448;51.298;6.430;2023-03-31T15:13:46;12.90;99.90
35970;DHT22;22448;51.298;6.430;2023-03-31T15:19:23;12.90;99.90
35970;DHT22;22448;51.298;6.430;2023-03-31T15:22:16;12.90;99.90
35970;DHT22;22448;51.298;6.430;2023-03-31T15:24:44;12.90;99.90
35970;DHT22;22448;51.298;6.430;2023-03-31T15:27:34;12.90;99.90
35970;DHT22;22448;51.298;6.430;2023-03-31T15:30:24;12.90;99.90
35970;DHT22;22448;51.298;6.430;2023-03-31T15:32:52;12.90;99.90
35970;DHT22;22448;51.298;6.430;2023-03-31T15:35:31;12.90;99.90
35970;DHT22;22448;51.298;6.430;2023-03-31T15:38:01;12.90;99.90
35970;DHT22;22448;51.298;6.430;2023-03-31T15:40:30;12.90;99.90
35970;DHT22;22448;51.298;6.430;2023-03-31T15:43:16;13.00;99.90
35970;DHT22;22448;51.298;6.430;2023-03-31T15:45:50;13.00;99.90
35970;DHT22;22448;51.298;6.430;2023-03-31T15:48:19;12.90;99.90
35970;DHT22;22448;51.298;6.430;2023-03-31T15:50:47;13.00;99.90
35970;DHT22;22448;51.298;6.430;2023-03-31T15:53:27;12.90;99.90
35970;DHT22;22448;51.298;6.430;2023-03-31T15:55:57;12.80;99.90
35970;DHT22;22448;51.298;6.430;2023-03-31T15:59:22;12.80;99.90
35970;DHT22;22448;51.298;6.430;2023-03-31T16:02:00;12.70;99.90
35970;DHT22;22448;51.298;6.430;2023-03-31T16:04:30;12.60;99.90
35970;DHT22;22448;51.298;6.430;2023-03-31T16:07:02;12.60;99.90
35970;DHT22;22448;51.298;6.430;2023-03-31T16:18:09;12.30;99.90
35970;DHT22;22448;51.298;6.430;2023-03-31T16:20:21;12.20;99.90
35970;DHT22;22448;51.298;6.430;2023-03-31T16:22:52;12.20;99.90
35970;DHT22;22448;51.298;6.430;2023-03-31T16:25:22;12.20;99.90
35970;DHT22;22448;51.298;6.430;2023-03-31T16:27:55;12.20;99.90
35970;DHT22;22448;51.298;6.430;2023-03-31T16:30:36;12.10;99.90
35970;DHT22;22448;51.298;6.430;2023-03-31T16:33:26;12.00;99.90
35970;DHT22;22448;51.298;6.430;2023-03-31T16:35:54;11.90;99.90
35970;DHT22;22448;51.298;6.430;2023-03-31T16:38:26;11.80;99.90
35970;DHT22;22448;51.298;6.430;2023-03-31T16:40:56;11.70;99.90
35970;DHT22;22448;51.298;6.430;2023-03-31T16:43:25;11.70;99.90
35970;DHT22;22448;51.298;6.430;2023-03-31T16:45:58;11.70;99.90
35970;DHT22;22448;51.298;6.430;2023-03-31T16:48:27;11.60;99.90
35970;DHT22;22448;51.298;6.430;2023-03-31T16:50:56;11.50;99.90
35970;DHT22;22448;51.298;6.430;2023-03-31T16:53:26;11.50;99.90
35970;DHT22;22448;51.298;6.430;2023-03-31T16:55:54;11.40;99.90
35970;DHT22;22448;51.298;6.430;2023-03-31T16:58:22;11.30;99.90
35970;DHT22;22448;51.298;6.430;2023-03-31T17:00:55;11.30;99.90
35970;DHT22;22448;51.298;6.430;2023-03-31T17:03:22;11.10;99.90
35970;DHT22;22448;51.298;6.430;2023-03-31T17:05:51;11.10;99.90
35970;DHT22;22448;51.298;6.430;2023-03-31T17:08:24;11.00;99.90
35970;DHT22;22448;51.298;6.430;2023-03-31T17:10:59;11.00;99.90
35970;DHT22;22448;51.298;6.430;2023-03-31T17:13:27;10.90;99.90
35970;DHT22;22448;51.298;6.430;2023-03-31T17:15:53;10.90;99.90
35970;DHT22;22448;51.298;6.430;2023-03-31T17:18:41;10.80;99.90
35970;DHT22;22448;51.298;6.430;2023-03-31T17:21:10;10.80;99.90
35970;DHT22;22448;51.298;6.430;2023-03-31T17:23:39;10.70;99.90
35970;DHT22;22448;51.298;6.430;2023-03-31T17:26:07;10.70;99.90
35970;DHT22;22448;51.298;6.430;2023-03-31T17:28:41;10.70;99.90
35970;DHT22;22448;51.298;6.430;2023-03-31T17:31:18;10.70;99.90
35970;DHT22;22448;51.298;6.430;2023-03-31T17:33:45;10.70;99.90
35970;DHT22;22448;51.298;6.430;2023-03-31T17:36:13;10.60;99.90
35970;DHT22;22448;51.298;6.430;2023-03-31T17:38:41;10.70;99.90
35970;DHT22;22448;51.298;6.430;2023-03-31T17:41:10;10.70;99.90
35970;DHT22;22448;51.298;6.430;2023-03-31T17:43:38;10.60;99.90
35970;DHT22;22448;51.298;6.430;2023-03-31T17:46:07;10.60;99.90
35970;DHT22;22448;51.298;6.430;2023-03-31T17:48:38;10.60;99.90
35970;DHT22;22448;51.298;6.430;2023-03-31T17:51:06;10.60;99.90
35970;DHT22;22448;51.298;6.430;2023-03-31T17:53:34;10.50;99.90
35970;DHT22;22448;51.298;6.430;2023-03-31T17:56:03;10.60;99.90
35970;DHT22;22448;51.298;6.430;2023-03-31T17:58:31;10.50;99.90
35970;DHT22;22448;51.298;6.430;2023-03-31T18:00:58;10.50;99.90
35970;DHT22;22448;51.298;6.430;2023-03-31T18:03:28;10.50;99.90
35970;DHT22;22448;51.298;6.430;2023-03-31T18:05:56;10.60;99.90
35970;DHT22;22448;51.298;6.430;2023-03-31T18:08:23;10.50;99.90
35970;DHT22;22448;51.298;6.430;2023-03-31T18:10:50;10.50;99.90
35970;DHT22;22448;51.298;6.430;2023-03-31T18:13:17;10.50;99.90
35970;DHT22;22448;51.298;6.430;2023-03-31T18:15:49;10.50;99.90
35970;DHT22;22448;51.298;6.430;2023-03-31T18:18:18;10.50;99.90
35970;DHT22;22448;51.298;6.430;2023-03-31T18:20:46;10.40;99.90
35970;DHT22;22448;51.298;6.430;2023-03-31T18:23:13;10.50;99.90
35970;DHT22;22448;51.298;6.430;2023-03-31T18:25:44;10.50;99.90
35970;DHT22;22448;51.298;6.430;2023-03-31T18:28:16;10.50;99.90
35970;DHT22;22448;51.298;6.430;2023-03-31T18:30:43;10.60;99.90
35970;DHT22;22448;51.298;6.430;2023-03-31T18:33:12;10.60;99.90
35970;DHT22;22448;51.298;6.430;2023-03-31T18:35:39;10.60;99.90
35970;DHT22;22448;51.298;6.430;2023-03-31T18:38:07;10.60;99.90